createdAt,value
2022-12-19T00:01:07.404Z,123.28
2022-12-19T00:11:10.397Z,135.15
2022-12-19T00:21:16.869Z,142.38
2022-12-19T00:31:20.005Z,144.77
2022-12-19T00:41:33.550Z,149.10
2022-12-19T00:51:37.642Z,139.93
2022-12-19T01:12:07.413Z,140.60
2022-12-19T01:22:09.259Z,136.48
2022-12-19T01:32:14.420Z,134.70
2022-12-19T01:42:23.451Z,142.38
2022-12-19T01:52:25.943Z,149.00
2022-12-19T02:02:36.318Z,146.20
2022-12-19T02:12:44.537Z,162.68
2022-12-19T02:22:56.295Z,159.75
2022-12-19T02:33:05.881Z,169.80
2022-12-19T02:43:13.240Z,146.52
2022-12-19T02:53:23.975Z,169.55
2022-12-19T03:04:14.615Z,145.80
2022-12-19T03:14:20.061Z,145.65
2022-12-19T03:24:25.730Z,134.48
2022-12-19T03:34:32.898Z,147.13
2022-12-19T03:44:39.493Z,143.82
2022-12-19T03:54:48.575Z,131.07
2022-12-19T04:05:02.474Z,139.68
2022-12-19T04:15:05.550Z,146.80
2022-12-19T04:25:13.729Z,139.27
2022-12-19T04:35:17.419Z,137.93
2022-12-19T04:45:22.724Z,143.48
2022-12-19T04:55:28.767Z,136.45
2022-12-19T05:05:30.509Z,134.20
2022-12-19T05:15:33.594Z,139.25
2022-12-19T05:25:42.243Z,122.82
2022-12-19T05:35:44.970Z,134.55
2022-12-19T05:45:48.958Z,125.55
2022-12-19T05:56:12.008Z,121.85
2022-12-19T06:06:17.664Z,134.25
2022-12-19T06:16:21.490Z,119.15
2022-12-19T06:26:25.143Z,114.40
2022-12-19T06:37:31.694Z,128.00
2022-12-19T06:47:33.290Z,99.80
2022-12-19T06:57:37.423Z,101.75
2022-12-19T07:07:40.711Z,99.20
2022-12-19T07:17:43.672Z,87.13
2022-12-19T07:27:46.477Z,77.35
2022-12-19T07:37:48.066Z,71.72
2022-12-19T07:48:07.293Z,72.03
2022-12-19T07:58:16.820Z,69.20
2022-12-19T08:08:18.695Z,50.70
2022-12-19T08:18:20.583Z,45.33
2022-12-19T08:28:25.340Z,46.42
2022-12-19T08:38:27.024Z,47.20
2022-12-19T08:48:29.159Z,47.53
2022-12-19T08:58:31.318Z,52.75
2022-12-19T09:08:34.121Z,51.30
2022-12-19T09:18:42.637Z,45.80
2022-12-19T09:28:48.046Z,45.20
2022-12-19T09:38:57.526Z,45.75
2022-12-19T09:49:02.292Z,41.35
2022-12-19T09:59:22.528Z,42.70
2022-12-19T10:11:34.784Z,43.00
2022-12-19T10:20:19.328Z,42.95
2022-12-19T10:30:23.094Z,39.90
2022-12-19T10:50:41.301Z,38.70
2022-12-19T11:01:04.402Z,37.10
2022-12-19T11:13:10.331Z,42.10
2022-12-19T11:29:44.851Z,44.08
2022-12-19T11:32:36.678Z,40.10
2022-12-19T11:42:37.788Z,40.60
2022-12-19T11:53:16.538Z,37.33
2022-12-19T12:03:58.324Z,37.85
2022-12-19T12:19:33.813Z,40.55
2022-12-19T12:31:41.875Z,36.15
2022-12-19T12:45:55.757Z,46.65
2022-12-19T12:56:00.897Z,44.03
2022-12-19T13:06:07.575Z,45.47
2022-12-19T13:16:43.707Z,46.08
2022-12-19T13:26:51.340Z,40.97
2022-12-19T13:40:02.343Z,42.55
2022-12-19T13:47:29.958Z,49.47
2022-12-19T13:57:38.740Z,45.05
2022-12-19T14:07:42.374Z,45.95
2022-12-19T14:17:49.329Z,49.63
2022-12-19T14:28:24.462Z,53.97
2022-12-19T14:39:20.436Z,58.53
2022-12-19T14:53:52.729Z,58.10
2022-12-19T14:59:42.349Z,50.70
2022-12-19T15:11:06.715Z,61.00
2022-12-19T15:20:16.434Z,46.70
2022-12-19T15:30:21.511Z,50.65
2022-12-19T15:40:33.067Z,54.15
2022-12-19T15:50:39.832Z,53.00
2022-12-19T16:00:54.682Z,58.33
2022-12-19T16:11:01.669Z,55.17
2022-12-19T16:21:33.754Z,56.92
2022-12-19T16:31:46.762Z,58.83
2022-12-19T16:41:48.678Z,58.33
2022-12-19T16:51:52.110Z,56.35
2022-12-19T17:01:54.272Z,62.87
2022-12-19T17:12:01.412Z,58.50
2022-12-19T17:22:13.259Z,64.75
2022-12-19T17:32:23.699Z,61.42
2022-12-19T17:42:29.761Z,58.03
2022-12-19T17:52:38.703Z,60.25
2022-12-19T18:02:41.626Z,50.38
2022-12-19T18:12:55.593Z,53.95
2022-12-19T18:22:57.863Z,58.67
2022-12-19T18:33:02.813Z,60.50
2022-12-19T18:43:06.769Z,59.15
2022-12-19T18:53:13.439Z,58.53
2022-12-19T19:03:18.352Z,60.42
2022-12-19T19:13:21.739Z,63.33
2022-12-19T19:23:29.675Z,66.10
2022-12-19T19:33:39.858Z,64.15
2022-12-19T19:43:42.145Z,62.33
2022-12-19T19:53:47.988Z,64.05
2022-12-19T20:03:50.055Z,69.97
2022-12-19T20:13:52.297Z,63.80
2022-12-19T20:23:55.931Z,66.82
2022-12-19T20:33:58.829Z,67.97
2022-12-19T20:44:01.493Z,68.57
2022-12-19T20:54:11.706Z,68.38
2022-12-19T21:04:13.619Z,65.60
2022-12-19T21:14:16.987Z,69.05
2022-12-19T21:24:18.877Z,76.17
2022-12-19T21:34:23.988Z,71.05
2022-12-19T21:44:26.393Z,68.13
2022-12-19T21:54:39.484Z,65.72
2022-12-19T22:04:41.416Z,72.45
2022-12-19T22:14:44.933Z,71.13
2022-12-19T22:24:46.794Z,72.90
2022-12-19T22:34:49.301Z,76.75
2022-12-19T22:44:53.106Z,76.70
2022-12-19T22:55:02.136Z,71.95
2022-12-19T23:05:09.382Z,76.72
2022-12-19T23:15:11.314Z,80.95
2022-12-19T23:25:14.186Z,81.90
2022-12-19T23:35:16.138Z,87.82
2022-12-19T23:45:31.157Z,75.60
2022-12-19T23:55:33.017Z,75.72
